createdAt,value
2022-09-25T00:00:45.987Z,101654.69
2022-09-25T00:03:13.834Z,101655.63
2022-09-25T00:05:42.459Z,101657.81
2022-09-25T00:08:10.157Z,101651.69
2022-09-25T00:10:44.819Z,101653.03
2022-09-25T00:13:11.820Z,101665.94
2022-09-25T00:15:38.969Z,101670.22
2022-09-25T00:18:05.662Z,101669.94
2022-09-25T00:20:32.153Z,101678.34
2022-09-25T00:23:02.532Z,101673.47
2022-09-25T00:25:29.078Z,101676.66
2022-09-25T00:27:56.338Z,101670.53
2022-09-25T00:30:23.910Z,101674.38
2022-09-25T00:32:50.604Z,101682.16
2022-09-25T00:35:17.366Z,101683.25
2022-09-25T00:37:43.889Z,101680.22
2022-09-25T00:40:10.577Z,101677.16
2022-09-25T00:42:37.051Z,101672.84
2022-09-25T00:45:05.787Z,101677.91
2022-09-25T00:47:40.973Z,101680.81
2022-09-25T00:50:36.145Z,101680.97
2022-09-25T00:53:25.118Z,101679.72
2022-09-25T00:55:52.406Z,101678.34
2022-09-25T00:58:23.421Z,101678.97
2022-09-25T01:00:51.949Z,101673.91
2022-09-25T01:03:20.098Z,101675.31
2022-09-25T01:05:47.523Z,101677.72
2022-09-25T01:08:19.797Z,101673.44
2022-09-25T01:10:46.284Z,101677.56
2022-09-25T01:13:14.325Z,101677.41
2022-09-25T01:16:14.036Z,101676.19
2022-09-25T01:19:12.412Z,101681.19
2022-09-25T01:21:52.793Z,101675.41
2022-09-25T01:24:34.223Z,101677.53
2022-09-25T01:27:26.067Z,101670.00
2022-09-25T01:30:08.732Z,101675.38
2022-09-25T01:32:44.326Z,101673.06
2022-09-25T01:35:18.470Z,101676.31
2022-09-25T01:38:00.152Z,101671.69
2022-09-25T01:40:30.235Z,101674.59
2022-09-25T01:43:27.009Z,101665.84
2022-09-25T01:46:08.306Z,101676.88
2022-09-25T01:48:36.538Z,101673.63
2022-09-25T01:51:08.314Z,101683.56
2022-09-25T01:53:44.523Z,101683.41
2022-09-25T01:56:23.326Z,101683.06
2022-09-25T01:58:55.099Z,101681.06
2022-09-25T02:01:27.520Z,101677.97
2022-09-25T02:04:00.400Z,101673.41
2022-09-25T02:06:27.878Z,101666.22
2022-09-25T02:09:19.028Z,101668.63
2022-09-25T02:11:51.426Z,101670.75
2022-09-25T02:14:28.089Z,101673.66
2022-09-25T02:16:58.238Z,101676.84
2022-09-25T02:19:44.436Z,101667.34
2022-09-25T02:22:20.152Z,101665.34
2022-09-25T02:25:11.602Z,101677.38
2022-09-25T02:27:38.341Z,101675.84
2022-09-25T02:30:05.651Z,101674.16
2022-09-25T02:32:33.668Z,101674.75
2022-09-25T02:35:00.816Z,101679.94
2022-09-25T02:37:27.764Z,101679.59
2022-09-25T02:39:58.104Z,101677.00
2022-09-25T02:42:57.133Z,101676.03
2022-09-25T02:46:03.145Z,101677.41
2022-09-25T02:48:41.298Z,101675.09
2022-09-25T02:51:39.166Z,101676.19
2022-09-25T02:54:10.700Z,101671.00
2022-09-25T02:56:59.960Z,101666.19
2022-09-25T02:59:35.799Z,101670.16
2022-09-25T03:02:02.789Z,101666.78
2022-09-25T03:04:32.270Z,101666.06
2022-09-25T03:06:59.028Z,101672.31
2022-09-25T03:09:26.434Z,101670.25
2022-09-25T03:11:53.094Z,101665.84
2022-09-25T03:14:19.892Z,101665.66
2022-09-25T03:16:47.780Z,101667.78
2022-09-25T03:19:14.838Z,101660.63
2022-09-25T03:21:41.408Z,101669.16
2022-09-25T03:24:08.965Z,101658.88
2022-09-25T03:26:35.433Z,101663.88
2022-09-25T03:29:02.392Z,101669.41
2022-09-25T03:31:30.189Z,101669.19
2022-09-25T03:33:57.182Z,101668.41
2022-09-25T03:36:26.681Z,101663.34
2022-09-25T03:38:57.863Z,101664.09
2022-09-25T03:41:27.413Z,101662.41
2022-09-25T03:43:56.550Z,101660.09
2022-09-25T03:46:25.939Z,101652.31
2022-09-25T03:48:54.157Z,101657.50
2022-09-25T03:51:21.715Z,101657.78
2022-09-25T03:53:49.167Z,101651.38
2022-09-25T03:56:18.385Z,101659.75
2022-09-25T03:58:44.968Z,101653.03
2022-09-25T04:01:11.715Z,101648.41
2022-09-25T04:03:39.472Z,101658.59
2022-09-25T04:06:08.507Z,101662.84
2022-09-25T04:08:36.520Z,101654.31
2022-09-25T04:11:04.363Z,101652.00
2022-09-25T04:13:34.174Z,101651.22
2022-09-25T04:16:02.099Z,101660.03
2022-09-25T04:18:31.878Z,101662.16
2022-09-25T04:21:04.623Z,101656.97
2022-09-25T04:23:31.815Z,101652.06
2022-09-25T04:25:58.634Z,101654.13
2022-09-25T04:28:26.246Z,101649.72
2022-09-25T04:30:53.273Z,101652.00
2022-09-25T04:33:39.061Z,101654.44
2022-09-25T04:36:06.523Z,101650.66
2022-09-25T04:38:33.422Z,101649.91
2022-09-25T04:41:01.629Z,101651.72
2022-09-25T04:43:29.591Z,101644.44
2022-09-25T04:46:00.203Z,101647.31
2022-09-25T04:48:26.742Z,101645.00
2022-09-25T04:50:53.209Z,101645.59
2022-09-25T04:53:19.757Z,101643.19
2022-09-25T04:55:47.341Z,101644.25
2022-09-25T04:58:13.848Z,101645.00
2022-09-25T05:00:41.163Z,101642.53
2022-09-25T05:03:07.758Z,101633.50
2022-09-25T05:05:35.288Z,101631.50
2022-09-25T05:08:02.475Z,101641.09
2022-09-25T05:10:34.989Z,101639.06
2022-09-25T05:13:03.161Z,101647.31
2022-09-25T05:15:31.735Z,101642.44
2022-09-25T05:18:02.666Z,101645.00
2022-09-25T05:20:29.711Z,101648.38
2022-09-25T05:22:59.687Z,101643.03
2022-09-25T05:25:27.130Z,101645.41
2022-09-25T05:27:58.235Z,101641.84
2022-09-25T05:30:26.387Z,101642.13
2022-09-25T05:32:53.525Z,101642.31
2022-09-25T05:35:22.291Z,101641.38
2022-09-25T05:37:48.800Z,101641.19
2022-09-25T05:40:16.193Z,101645.09
2022-09-25T05:42:44.220Z,101650.00
2022-09-25T05:45:12.251Z,101646.63
2022-09-25T05:47:42.690Z,101643.28
2022-09-25T05:50:11.638Z,101648.75
2022-09-25T05:52:38.574Z,101639.44
2022-09-25T05:55:06.326Z,101639.94
2022-09-25T05:57:34.369Z,101647.69
2022-09-25T06:00:01.868Z,101630.34
2022-09-25T06:02:28.589Z,101635.31
2022-09-25T06:04:55.094Z,101635.03
2022-09-25T06:07:21.786Z,101638.97
2022-09-25T06:09:48.290Z,101647.78
2022-09-25T06:12:14.862Z,101654.22
2022-09-25T06:14:41.989Z,101646.94
2022-09-25T06:17:08.930Z,101647.69
2022-09-25T06:19:35.454Z,101650.69
2022-09-25T06:22:01.915Z,101651.91
2022-09-25T06:24:28.354Z,101650.38
2022-09-25T06:26:54.841Z,101651.25
2022-09-25T06:29:21.311Z,101644.31
2022-09-25T06:31:48.083Z,101647.13
2022-09-25T06:34:14.633Z,101647.50
2022-09-25T06:36:41.239Z,101643.94
2022-09-25T06:39:08.587Z,101656.03
2022-09-25T06:41:36.803Z,101653.16
2022-09-25T06:44:03.484Z,101649.31
2022-09-25T06:46:30.241Z,101654.69
2022-09-25T06:48:59.655Z,101655.06
2022-09-25T06:51:32.335Z,101654.47
2022-09-25T06:53:59.131Z,101653.16
2022-09-25T06:56:25.860Z,101654.13
2022-09-25T06:58:52.456Z,101659.97
2022-09-25T07:01:19.287Z,101655.66
2022-09-25T07:03:45.891Z,101657.69
2022-09-25T07:06:24.356Z,101663.78
2022-09-25T07:08:52.097Z,101664.47
2022-09-25T07:11:21.316Z,101674.00
2022-09-25T07:13:49.928Z,101676.38
2022-09-25T07:16:19.616Z,101674.63
2022-09-25T07:18:46.884Z,101678.69
2022-09-25T07:21:21.576Z,101688.56
2022-09-25T07:23:49.944Z,101693.06
2022-09-25T07:26:25.263Z,101699.00
2022-09-25T07:29:03.905Z,101697.56
2022-09-25T07:31:35.158Z,101693.03
2022-09-25T07:34:08.863Z,101694.38
2022-09-25T07:36:38.553Z,101690.94
2022-09-25T07:39:05.533Z,101690.22
2022-09-25T07:41:32.831Z,101698.13
2022-09-25T07:44:24.427Z,101689.31
2022-09-25T07:46:46.689Z,101690.94
2022-09-25T07:49:13.999Z,101680.53
2022-09-25T07:51:40.559Z,101686.19
2022-09-25T07:54:07.329Z,101675.38
2022-09-25T07:56:38.381Z,101690.38
2022-09-25T07:59:05.075Z,101689.97
2022-09-25T08:01:31.663Z,101685.84
2022-09-25T08:03:58.203Z,101692.88
2022-09-25T08:06:24.729Z,101695.19
2022-09-25T08:08:51.176Z,101694.66
2022-09-25T08:11:18.390Z,101690.72
2022-09-25T08:13:46.171Z,101705.09
2022-09-25T08:16:15.649Z,101699.00
2022-09-25T08:18:45.470Z,101690.72
2022-09-25T08:21:16.482Z,101693.94
2022-09-25T08:23:48.022Z,101687.63
2022-09-25T08:26:16.162Z,101695.78
2022-09-25T08:28:42.924Z,101696.34
2022-09-25T08:31:09.555Z,101692.69
2022-09-25T08:33:37.354Z,101690.69
2022-09-25T08:36:05.494Z,101691.44
2022-09-25T08:38:35.267Z,101688.06
2022-09-25T08:41:08.041Z,101691.94
2022-09-25T08:43:42.893Z,101692.75
2022-09-25T08:46:54.455Z,101685.59
2022-09-25T08:49:26.391Z,101685.41
2022-09-25T08:51:59.402Z,101673.00
2022-09-25T08:54:29.342Z,101672.16
2022-09-25T08:56:59.181Z,101674.91
2022-09-25T08:59:39.083Z,101671.19
2022-09-25T09:02:33.364Z,101664.56
2022-09-25T09:05:01.809Z,101668.44
2022-09-25T09:07:39.243Z,101666.50
2022-09-25T09:10:28.186Z,101676.19
2022-09-25T09:13:24.194Z,101673.91
2022-09-25T09:16:23.129Z,101670.00
2022-09-25T09:18:50.008Z,101666.41
2022-09-25T09:21:37.989Z,101668.47
2022-09-25T09:24:13.616Z,101665.81
2022-09-25T09:26:58.821Z,101664.47
2022-09-25T09:30:05.696Z,101665.13
2022-09-25T09:33:04.127Z,101662.69
2022-09-25T09:35:48.672Z,101668.38
2022-09-25T09:38:24.698Z,101672.44
2022-09-25T09:41:14.695Z,101661.78
2022-09-25T09:43:57.175Z,101668.56
2022-09-25T09:46:59.181Z,101664.00
2022-09-25T09:49:37.811Z,101659.53
2022-09-25T09:52:17.391Z,101661.81
2022-09-25T09:54:55.792Z,101658.16
2022-09-25T09:57:33.132Z,101661.38
2022-09-25T10:00:13.322Z,101666.25
2022-09-25T10:02:44.496Z,101660.63
2022-09-25T10:05:20.614Z,101668.53
2022-09-25T10:07:49.678Z,101650.16
2022-09-25T10:10:19.112Z,101657.31
2022-09-25T10:12:54.064Z,101663.50
2022-09-25T10:15:36.603Z,101661.28
2022-09-25T10:18:04.007Z,101646.97
2022-09-25T10:21:26.232Z,101651.50
2022-09-25T10:23:55.123Z,101643.19
2022-09-25T10:26:38.094Z,101651.63
2022-09-25T10:29:07.849Z,101642.97
2022-09-25T10:31:38.546Z,101640.94
2022-09-25T10:34:24.297Z,101638.84
2022-09-25T10:36:53.106Z,101632.03
2022-09-25T10:39:44.727Z,101639.34
2022-09-25T10:42:35.718Z,101644.28
2022-09-25T10:45:21.274Z,101648.84
2022-09-25T10:48:09.081Z,101644.81
2022-09-25T10:50:37.042Z,101648.59
2022-09-25T10:53:05.235Z,101644.84
2022-09-25T10:55:35.316Z,101639.94
2022-09-25T10:58:10.829Z,101642.06
2022-09-25T11:00:46.390Z,101639.03
2022-09-25T11:03:24.261Z,101640.03
2022-09-25T11:05:56.439Z,101632.34
2022-09-25T11:08:30.419Z,101632.34
2022-09-25T11:10:59.275Z,101633.69
2022-09-25T11:13:38.203Z,101630.53
2022-09-25T11:16:10.376Z,101631.28
2022-09-25T11:18:45.613Z,101619.72
2022-09-25T11:21:21.088Z,101626.28
2022-09-25T11:24:12.981Z,101622.53
2022-09-25T11:26:50.803Z,101621.34
2022-09-25T11:29:38.747Z,101617.97
2022-09-25T11:32:29.268Z,101604.63
2022-09-25T11:35:26.868Z,101598.31
2022-09-25T11:38:05.126Z,101590.34
2022-09-25T11:40:58.484Z,101600.50
2022-09-25T11:44:27.708Z,101599.56
2022-09-25T11:47:01.106Z,101593.81
2022-09-25T11:49:36.201Z,101594.59
2022-09-25T11:52:16.496Z,101590.22
2022-09-25T11:55:05.823Z,101590.28
2022-09-25T11:57:56.100Z,101577.88
2022-09-25T12:00:41.068Z,101580.94
2022-09-25T12:03:36.391Z,101573.06
2022-09-25T12:06:27.056Z,101558.16
2022-09-25T12:09:35.047Z,101569.50
2022-09-25T12:12:17.262Z,101569.16
2022-09-25T12:15:01.331Z,101561.50
2022-09-25T12:17:41.887Z,101565.38
2022-09-25T12:20:14.362Z,101559.38
2022-09-25T12:23:00.320Z,101559.44
2022-09-25T12:25:47.968Z,101550.47
2022-09-25T12:28:28.801Z,101552.00
2022-09-25T12:31:13.737Z,101544.84
2022-09-25T12:34:31.798Z,101533.56
2022-09-25T12:37:27.637Z,101538.44
2022-09-25T12:40:05.101Z,101541.47
2022-09-25T12:42:40.101Z,101530.91
2022-09-25T12:45:41.728Z,101529.41
2022-09-25T12:48:20.971Z,101530.19
2022-09-25T12:51:07.690Z,101527.13
2022-09-25T12:54:13.070Z,101526.03
2022-09-25T12:56:46.627Z,101519.63
2022-09-25T12:59:16.450Z,101517.69
2022-09-25T13:01:57.445Z,101518.09
2022-09-25T13:04:23.960Z,101522.63
2022-09-25T13:06:58.046Z,101517.31
2022-09-25T13:09:34.784Z,101517.69
2022-09-25T13:12:10.774Z,101511.97
2022-09-25T13:14:53.218Z,101508.16
2022-09-25T13:17:20.210Z,101500.19
2022-09-25T13:19:46.800Z,101510.41
2022-09-25T13:22:20.970Z,101503.59
2022-09-25T13:25:15.889Z,101509.28
2022-09-25T13:27:46.061Z,101511.25
2022-09-25T13:30:28.497Z,101507.56
2022-09-25T13:33:02.978Z,101507.53
2022-09-25T13:35:31.892Z,101507.53
2022-09-25T13:38:36.897Z,101508.63
2022-09-25T13:41:14.191Z,101513.50
2022-09-25T13:43:40.879Z,101506.94
2022-09-25T13:46:23.689Z,101510.34
2022-09-25T13:48:55.754Z,101511.13
2022-09-25T13:51:22.257Z,101504.03
2022-09-25T13:54:03.380Z,101506.63
2022-09-25T13:56:42.098Z,101503.69
2022-09-25T13:59:15.736Z,101508.28
2022-09-25T14:01:46.137Z,101510.09
2022-09-25T14:04:15.798Z,101507.91
2022-09-25T14:06:45.040Z,101513.97
2022-09-25T14:09:20.281Z,101509.81
2022-09-25T14:12:07.763Z,101500.78
2022-09-25T14:15:04.512Z,101493.91
2022-09-25T14:17:32.399Z,101494.69
2022-09-25T14:20:02.006Z,101499.94
2022-09-25T14:22:39.344Z,101495.81
2022-09-25T14:25:24.084Z,101488.69
2022-09-25T14:27:51.678Z,101486.78
2022-09-25T14:30:18.462Z,101480.78
2022-09-25T14:33:13.523Z,101482.25
2022-09-25T14:35:47.521Z,101485.66
2022-09-25T14:38:37.099Z,101484.56
2022-09-25T14:41:33.475Z,101480.44
2022-09-25T14:44:25.760Z,101467.22
2022-09-25T14:46:54.499Z,101463.84
2022-09-25T14:49:26.800Z,101464.59
2022-09-25T14:52:01.773Z,101462.34
2022-09-25T14:54:32.735Z,101462.34
2022-09-25T14:56:59.707Z,101459.31
2022-09-25T14:59:40.233Z,101459.69
2022-09-25T15:02:18.621Z,101455.19
2022-09-25T15:04:45.745Z,101454.41
2022-09-25T15:07:23.361Z,101462.31
2022-09-25T15:09:55.239Z,101451.00
2022-09-25T15:12:29.990Z,101454.75
2022-09-25T15:15:00.153Z,101460.41
2022-09-25T15:17:28.882Z,101463.00
2022-09-25T15:19:59.071Z,101458.81
2022-09-25T15:22:31.141Z,101457.34
2022-09-25T15:25:00.704Z,101457.53
2022-09-25T15:27:28.703Z,101456.69
2022-09-25T15:29:56.538Z,101453.34
2022-09-25T15:32:39.445Z,101445.56
2022-09-25T15:35:22.659Z,101444.06
2022-09-25T15:37:49.626Z,101442.34
2022-09-25T15:40:28.530Z,101444.34
2022-09-25T15:42:55.819Z,101449.59
2022-09-25T15:45:43.122Z,101439.47
2022-09-25T15:48:21.327Z,101426.78
2022-09-25T15:50:48.799Z,101429.78
2022-09-25T15:53:27.232Z,101436.56
2022-09-25T15:56:11.813Z,101428.31
2022-09-25T15:58:45.218Z,101434.69
2022-09-25T16:01:32.370Z,101429.03
2022-09-25T16:04:18.883Z,101432.69
2022-09-25T16:06:45.960Z,101435.28
2022-09-25T16:09:33.119Z,101432.69
2022-09-25T16:12:27.543Z,101435.34
2022-09-25T16:14:55.496Z,101440.19
2022-09-25T16:17:23.912Z,101431.88
2022-09-25T16:20:05.180Z,101427.66
2022-09-25T16:22:38.439Z,101436.22
2022-09-25T16:25:15.833Z,101432.47
2022-09-25T16:27:45.115Z,101431.47
2022-09-25T16:30:19.988Z,101431.47
2022-09-25T16:32:53.150Z,101428.94
2022-09-25T16:35:25.087Z,101429.16
2022-09-25T16:37:53.182Z,101428.34
2022-09-25T16:40:24.851Z,101424.72
2022-09-25T16:42:54.743Z,101425.59
2022-09-25T16:45:25.942Z,101425.69
2022-09-25T16:47:52.485Z,101433.50
2022-09-25T16:50:20.878Z,101432.00
2022-09-25T16:52:48.024Z,101428.97
2022-09-25T16:55:27.400Z,101433.84
2022-09-25T16:57:55.061Z,101430.38
2022-09-25T17:00:24.248Z,101429.97
2022-09-25T17:02:51.334Z,101428.06
2022-09-25T17:05:21.196Z,101437.06
2022-09-25T17:07:53.950Z,101427.59
2022-09-25T17:10:24.548Z,101416.72
2022-09-25T17:12:54.097Z,101415.50
2022-09-25T17:15:25.013Z,101415.34
2022-09-25T17:17:54.416Z,101413.50
2022-09-25T17:20:26.120Z,101405.22
2022-09-25T17:22:57.521Z,101407.84
2022-09-25T17:26:12.030Z,101397.63
2022-09-25T17:28:43.489Z,101401.72
2022-09-25T17:31:21.460Z,101388.47
2022-09-25T17:33:55.275Z,101389.97
2022-09-25T17:36:23.073Z,101387.94
2022-09-25T17:39:23.948Z,101379.59
2022-09-25T17:41:50.780Z,101377.69
2022-09-25T17:44:20.286Z,101381.72
2022-09-25T17:46:47.043Z,101372.22
2022-09-25T17:49:16.518Z,101372.91
2022-09-25T17:51:46.304Z,101372.06
2022-09-25T17:54:15.942Z,101379.50
2022-09-25T17:56:45.327Z,101374.91
2022-09-25T17:59:15.196Z,101368.84
2022-09-25T18:01:54.538Z,101370.88
2022-09-25T18:04:26.309Z,101372.69
2022-09-25T18:06:54.914Z,101383.47
2022-09-25T18:09:21.580Z,101376.56
2022-09-25T18:11:49.195Z,101375.13
2022-09-25T18:14:15.978Z,101372.06
2022-09-25T18:16:46.955Z,101378.31
2022-09-25T18:19:38.196Z,101374.38
2022-09-25T18:22:22.112Z,101371.16
2022-09-25T18:24:56.942Z,101364.97
2022-09-25T18:27:32.941Z,101371.84
2022-09-25T18:30:00.896Z,101373.78
2022-09-25T18:32:27.501Z,101367.03
2022-09-25T18:34:55.666Z,101368.81
2022-09-25T18:37:25.515Z,101368.75
2022-09-25T18:39:52.019Z,101362.69
2022-09-25T18:42:20.157Z,101364.91
2022-09-25T18:44:47.321Z,101356.22
2022-09-25T18:47:15.437Z,101360.28
2022-09-25T18:49:45.413Z,101350.34
2022-09-25T18:52:12.175Z,101348.38
2022-09-25T18:54:42.140Z,101343.78
2022-09-25T18:57:10.391Z,101338.16
2022-09-25T18:59:39.436Z,101332.34
2022-09-25T19:02:07.391Z,101329.25
2022-09-25T19:04:36.117Z,101328.66
2022-09-25T19:07:02.710Z,101324.16
2022-09-25T19:09:29.737Z,101325.50
2022-09-25T19:11:56.396Z,101332.34
2022-09-25T19:14:24.125Z,101333.28
2022-09-25T19:16:53.674Z,101328.31
2022-09-25T19:19:20.312Z,101325.09
2022-09-25T19:21:46.916Z,101326.47
2022-09-25T19:24:13.944Z,101334.13
2022-09-25T19:26:42.752Z,101330.84
2022-09-25T19:29:09.450Z,101325.63
2022-09-25T19:31:36.785Z,101319.78
2022-09-25T19:34:03.551Z,101321.56
2022-09-25T19:36:33.361Z,101312.78
2022-09-25T19:39:00.935Z,101315.19
2022-09-25T19:41:29.916Z,101310.91
2022-09-25T19:43:59.607Z,101310.06
2022-09-25T19:46:31.924Z,101306.47
2022-09-25T19:48:58.897Z,101294.03
2022-09-25T19:51:26.567Z,101300.56
2022-09-25T19:53:53.885Z,101301.97
2022-09-25T19:56:21.489Z,101297.34
2022-09-25T19:58:50.783Z,101293.44
2022-09-25T20:01:26.107Z,101294.00
2022-09-25T20:03:53.450Z,101285.75
2022-09-25T20:06:20.091Z,101274.47
2022-09-25T20:08:46.546Z,101272.38
2022-09-25T20:11:19.555Z,101273.06
2022-09-25T20:13:47.567Z,101272.22
2022-09-25T20:16:17.386Z,101269.81
2022-09-25T20:18:48.232Z,101271.25
2022-09-25T20:21:17.579Z,101269.63
2022-09-25T20:23:44.451Z,101260.94
2022-09-25T20:26:14.315Z,101255.75
2022-09-25T20:28:40.909Z,101259.22
2022-09-25T20:31:09.871Z,101258.78
2022-09-25T20:33:37.470Z,101260.97
2022-09-25T20:36:06.524Z,101257.06
2022-09-25T20:38:33.687Z,101251.41
2022-09-25T20:41:01.564Z,101242.75
2022-09-25T20:43:28.399Z,101245.69
2022-09-25T20:45:59.106Z,101240.69
2022-09-25T20:48:25.713Z,101235.47
2022-09-25T20:50:52.462Z,101238.47
2022-09-25T20:53:18.972Z,101232.75
2022-09-25T20:55:45.531Z,101231.91
2022-09-25T20:58:12.042Z,101220.25
2022-09-25T21:00:38.520Z,101231.38
2022-09-25T21:03:05.250Z,101228.75
2022-09-25T21:05:36.931Z,101223.44
2022-09-25T21:08:03.565Z,101220.06
2022-09-25T21:10:34.033Z,101222.53
2022-09-25T21:13:00.707Z,101223.97
2022-09-25T21:15:28.643Z,101223.44
2022-09-25T21:17:55.169Z,101219.31
2022-09-25T21:20:21.745Z,101215.81
2022-09-25T21:22:48.247Z,101213.88
2022-09-25T21:25:14.799Z,101212.00
2022-09-25T21:27:41.486Z,101216.38
2022-09-25T21:30:08.543Z,101215.63
2022-09-25T21:32:35.064Z,101213.31
2022-09-25T21:35:01.651Z,101215.06
2022-09-25T21:37:28.129Z,101209.53
2022-09-25T21:39:54.608Z,101204.75
2022-09-25T21:42:22.171Z,101199.13
2022-09-25T21:44:48.695Z,101207.69
2022-09-25T21:47:15.375Z,101195.75
2022-09-25T21:49:41.838Z,101190.88
2022-09-25T21:52:09.173Z,101191.19
2022-09-25T21:54:35.692Z,101190.00
2022-09-25T21:57:02.164Z,101190.00
2022-09-25T21:59:28.631Z,101187.06
2022-09-25T22:01:55.936Z,101185.22
2022-09-25T22:04:23.537Z,101176.66
2022-09-25T22:06:50.028Z,101174.81
2022-09-25T22:09:19.390Z,101174.06
2022-09-25T22:11:46.667Z,101169.59
2022-09-25T22:14:16.378Z,101167.00
2022-09-25T22:16:45.292Z,101165.16
2022-09-25T22:19:24.640Z,101158.09
2022-09-25T22:21:52.726Z,101154.75
2022-09-25T22:24:20.002Z,101148.34
2022-09-25T22:26:48.216Z,101143.47
2022-09-25T22:29:15.742Z,101141.19
2022-09-25T22:31:43.362Z,101147.13
2022-09-25T22:34:29.086Z,101135.22
2022-09-25T22:36:59.963Z,101132.28
2022-09-25T22:39:27.981Z,101136.06
2022-09-25T22:41:55.900Z,101130.47
2022-09-25T22:44:22.810Z,101116.53
2022-09-25T22:46:49.526Z,101115.13
2022-09-25T22:49:16.220Z,101114.06
2022-09-25T22:51:42.957Z,101105.19
2022-09-25T22:54:13.177Z,101103.63
2022-09-25T22:56:40.058Z,101104.06
2022-09-25T22:59:10.267Z,101108.63
2022-09-25T23:01:49.916Z,101094.31
2022-09-25T23:04:19.887Z,101087.38
2022-09-25T23:06:46.816Z,101084.97
2022-09-25T23:09:19.155Z,101075.78
2022-09-25T23:11:46.060Z,101067.28
2022-09-25T23:14:17.029Z,101062.09
2022-09-25T23:16:45.420Z,101060.34
2022-09-25T23:19:12.328Z,101056.91
2022-09-25T23:21:39.097Z,101051.47
2022-09-25T23:24:08.496Z,101047.25
2022-09-25T23:26:35.126Z,101038.00
2022-09-25T23:29:02.195Z,101033.56
2022-09-25T23:31:30.532Z,101027.81
2022-09-25T23:33:59.946Z,101027.06
2022-09-25T23:36:27.330Z,101024.22
2022-09-25T23:38:55.213Z,101023.03
2022-09-25T23:41:26.950Z,101014.91
2022-09-25T23:43:54.933Z,101011.84
2022-09-25T23:46:23.826Z,101012.78
2022-09-25T23:48:51.308Z,101008.16
2022-09-25T23:51:19.517Z,100997.81
2022-09-25T23:53:46.634Z,100998.47
2022-09-25T23:56:19.709Z,100984.03
2022-09-25T23:58:46.559Z,100986.00
